Time;durP1;ratioP1;P1;durP2;ratioP2;P2;SDS_P1;SDS_P2;PMS_P1;PMS_P2;Temp;Humidity;BMP_temperature;BMP_pressure;BME280_temperature;BME280_humidity;BME280_pressure;Samples;Min_cycle;Max_cycle;Signal;HPM_P1;HPM_P2
2022/03/05 00:02:28;;;;;;;9.70;5.55;;;0.10;99.90;;;;;;2101738;68;20674;-75
2022/03/05 00:05:12;;;;;;;9.10;6.28;;;0.00;99.90;;;;;;2091344;67;20183;-75
2022/03/05 00:07:54;;;;;;;10.50;5.90;;;0.00;99.90;;;;;;2094260;68;20240;-76
2022/03/05 00:10:36;;;;;;;9.52;5.72;;;0.00;99.90;;;;;;2101617;67;20239;-77
2022/03/05 00:13:18;;;;;;;9.63;6.18;;;-0.10;99.90;;;;;;2101796;67;20329;-76
2022/03/05 00:16:00;;;;;;;12.20;5.72;;;-0.10;99.90;;;;;;2095413;68;20179;-75
2022/03/05 00:18:41;;;;;;;8.02;5.05;;;-0.10;99.90;;;;;;2095398;68;20335;-76
2022/03/05 00:21:18;;;;;;;9.07;5.57;;;-0.20;99.90;;;;;;2069998;68;20856;-75
2022/03/05 00:23:54;;;;;;;9.88;6.13;;;-0.10;99.90;;;;;;2067745;68;20193;-76
2022/03/05 00:26:30;;;;;;;8.48;6.63;;;-0.20;99.90;;;;;;2074411;68;20273;-76
2022/03/05 00:29:21;;;;;;;10.60;6.22;;;-0.20;99.90;;;;;;2096382;68;20289;-76
2022/03/05 00:31:57;;;;;;;11.05;6.75;;;-0.20;99.90;;;;;;2102340;67;20186;-75
2022/03/05 00:34:34;;;;;;;10.15;6.40;;;-0.20;99.90;;;;;;2116176;67;20216;-75
2022/03/05 00:37:05;;;;;;;9.18;5.82;;;-0.20;99.90;;;;;;2135159;66;20295;-76
2022/03/05 00:39:42;;;;;;;10.23;5.75;;;-0.20;99.90;;;;;;2145307;66;20268;-76
2022/03/05 00:42:18;;;;;;;9.80;6.00;;;-0.30;99.90;;;;;;2145910;66;20349;-76
2022/03/05 00:44:55;;;;;;;12.35;7.10;;;-0.30;99.90;;;;;;2152866;66;20390;-77
2022/03/05 00:47:35;;;;;;;9.90;5.70;;;-0.30;99.90;;;;;;2178869;65;20296;-75
2022/03/05 00:50:12;;;;;;;13.45;5.25;;;-0.40;99.90;;;;;;2197166;65;20180;-75
2022/03/05 00:52:49;;;;;;;7.93;5.35;;;0.00;99.90;;;;;;2198239;65;20286;-76
2022/03/05 00:55:25;;;;;;;12.55;6.32;;;-0.40;99.90;;;;;;2199506;65;20217;-76
2022/03/05 00:58:03;;;;;;;9.68;6.45;;;-0.40;99.90;;;;;;2199858;65;20162;-76
2022/03/05 01:00:42;;;;;;;9.88;6.60;;;-0.40;99.90;;;;;;2204088;64;20168;-76
2022/03/05 01:03:19;;;;;;;12.20;6.82;;;-0.50;99.90;;;;;;2202636;64;20322;-75
2022/03/05 01:05:50;;;;;;;11.88;6.85;;;-0.30;99.90;;;;;;2206536;64;20181;-75
2022/03/05 01:08:40;;;;;;;13.15;6.47;;;-0.50;99.90;;;;;;2196160;65;20662;-76
2022/03/05 01:11:20;;;;;;;10.48;6.38;;;-0.50;99.90;;;;;;2195308;65;20177;-75
2022/03/05 01:13:59;;;;;;;11.02;6.32;;;-0.50;99.90;;;;;;2196164;64;20305;-75
2022/03/05 01:16:53;;;;;;;12.10;6.65;;;-0.60;99.90;;;;;;2187403;65;20194;-75
2022/03/05 01:19:35;;;;;;;10.48;5.95;;;-0.60;99.90;;;;;;2178268;65;20195;-75
2022/03/05 01:22:17;;;;;;;10.50;5.40;;;-0.60;99.90;;;;;;2164120;66;20338;-75
2022/03/05 01:24:59;;;;;;;12.85;6.43;;;-0.60;99.90;;;;;;2163494;66;20491;-76
2022/03/05 01:27:42;;;;;;;16.20;7.20;;;-0.60;99.90;;;;;;2168468;65;20336;-75
2022/03/05 01:30:26;;;;;;;9.60;6.18;;;-0.60;99.90;;;;;;2158588;66;20464;-76
2022/03/05 01:33:08;;;;;;;12.50;6.82;;;-0.60;99.90;;;;;;2152336;66;20371;-76
2022/03/05 01:35:50;;;;;;;11.10;6.75;;;-0.50;99.90;;;;;;2144518;66;20381;-76
2022/03/05 01:38:32;;;;;;;12.75;6.72;;;-0.70;99.90;;;;;;2131640;67;20238;-76
2022/03/05 01:41:14;;;;;;;11.68;6.25;;;-0.60;99.90;;;;;;2138512;67;20211;-75
2022/03/05 01:43:56;;;;;;;10.77;6.15;;;-0.60;99.90;;;;;;2138305;66;20316;-75
2022/03/05 01:46:39;;;;;;;12.00;7.05;;;-0.60;99.90;;;;;;2131632;67;20380;-74
2022/03/05 01:49:24;;;;;;;11.45;7.00;;;-0.60;99.90;;;;;;2123862;67;20299;-76
2022/03/05 01:52:10;;;;;;;11.18;6.70;;;-0.60;99.90;;;;;;2117823;67;20282;-75
2022/03/05 01:54:54;;;;;;;10.55;6.28;;;-0.60;99.90;;;;;;2119028;67;20762;-75
2022/03/05 01:57:36;;;;;;;11.98;7.00;;;-0.70;99.90;;;;;;2083657;68;20225;-76
2022/03/05 02:00:19;;;;;;;11.40;6.47;;;-0.70;99.90;;;;;;2087685;68;20299;-76
2022/03/05 02:03:02;;;;;;;9.13;5.57;;;-0.70;99.90;;;;;;2098189;68;21021;-75
2022/03/05 02:05:46;;;;;;;10.10;6.18;;;-0.70;99.90;;;;;;2089074;68;20192;-76
2022/03/05 02:08:28;;;;;;;12.57;6.40;;;-0.80;99.90;;;;;;2106065;67;20300;-76
2022/03/05 02:11:10;;;;;;;12.05;6.15;;;-0.80;99.90;;;;;;2105992;67;20336;-76
2022/03/05 02:13:54;;;;;;;7.88;5.43;;;-0.70;99.90;;;;;;2102873;68;20430;-76
2022/03/05 02:16:41;;;;;;;8.98;6.07;;;-0.70;99.90;;;;;;2096398;68;20407;-76
2022/03/05 02:19:24;;;;;;;10.02;5.70;;;-0.80;99.90;;;;;;2088641;68;20329;-76
2022/03/05 02:22:10;;;;;;;9.82;5.80;;;-0.80;99.90;;;;;;2101316;67;20257;-75
2022/03/05 02:25:02;;;;;;;8.98;5.93;;;-0.80;99.90;;;;;;2102808;68;20265;-76
2022/03/05 02:27:46;;;;;;;11.88;6.20;;;-0.80;99.90;;;;;;2103750;67;20778;-75
2022/03/05 02:30:29;;;;;;;10.93;6.10;;;-0.80;99.90;;;;;;2096356;68;20382;-76
2022/03/05 02:33:12;;;;;;;9.25;6.15;;;-0.90;99.90;;;;;;2088483;68;20319;-76
2022/03/05 02:35:57;;;;;;;;;;;-0.90;99.90;;;;;;2078487;68;20303;-75
2022/03/05 02:38:45;;;;;;;7.85;5.30;;;-0.90;99.90;;;;;;2090750;68;20063;-76
2022/03/05 02:41:28;;;;;;;10.13;6.72;;;-1.00;99.90;;;;;;2087168;68;20251;-75
2022/03/05 02:44:14;;;;;;;11.05;6.57;;;-1.00;99.90;;;;;;2089875;68;20222;-76
2022/03/05 02:46:58;;;;;;;;;;;-1.00;99.90;;;;;;2084301;68;20183;-75
2022/03/05 02:49:40;;;;;;;7.93;5.38;;;-1.00;99.90;;;;;;2093681;68;20164;-76
2022/03/05 02:52:23;;;;;;;9.45;5.45;;;-1.10;99.90;;;;;;2095934;68;20404;-76
2022/03/05 02:55:10;;;;;;;9.48;5.88;;;-1.10;99.90;;;;;;2094850;68;20297;-76
2022/03/05 02:57:54;;;;;;;12.07;6.47;;;-1.20;99.90;;;;;;2101077;67;20355;-76
2022/03/05 03:00:37;;;;;;;8.57;5.55;;;-1.20;99.90;;;;;;2104337;67;20194;-76
2022/03/05 03:03:24;;;;;;;13.45;7.05;;;-1.20;99.90;;;;;;2106753;67;20314;-75
2022/03/05 03:06:08;;;;;;;9.63;6.75;;;-1.20;99.90;;;;;;2112205;67;20738;-77
2022/03/05 03:08:55;;;;;;;11.63;6.95;;;-1.30;99.90;;;;;;2117266;67;20239;-76
2022/03/05 03:11:37;;;;;;;11.57;7.05;;;-1.30;99.90;;;;;;2131866;67;20242;-76
2022/03/05 03:14:19;;;;;;;8.88;5.95;;;-1.20;99.90;;;;;;2119344;67;20855;-76
2022/03/05 03:17:02;;;;;;;10.52;6.65;;;-1.40;99.90;;;;;;2107120;67;20190;-75
2022/03/05 03:19:44;;;;;;;11.43;6.90;;;-1.40;99.90;;;;;;2111089;67;20609;-76
2022/03/05 03:22:26;;;;;;;13.68;6.50;;;-1.40;99.90;;;;;;2119751;67;20209;-76
2022/03/05 03:25:10;;;;;;;12.02;7.80;;;-1.40;99.90;;;;;;2110202;67;20229;-75
2022/03/05 03:27:56;;;;;;;11.07;6.05;;;-1.50;99.90;;;;;;2110503;67;20919;-76
2022/03/05 03:30:41;;;;;;;11.77;6.38;;;-1.50;99.90;;;;;;2116514;67;20377;-75
2022/03/05 03:33:26;;;;;;;11.23;6.85;;;-1.50;99.90;;;;;;2118242;67;20351;-76
2022/03/05 03:36:08;;;;;;;11.10;6.72;;;-0.40;99.90;;;;;;2110331;67;20826;-76
2022/03/05 03:38:49;;;;;;;14.25;6.55;;;-1.50;99.90;;;;;;2119410;67;20188;-76
2022/03/05 03:41:31;;;;;;;11.43;6.13;;;-1.50;99.90;;;;;;2109228;67;20372;-76
2022/03/05 03:44:14;;;;;;;12.82;7.13;;;-1.60;99.90;;;;;;2101419;67;20193;-76
2022/03/05 03:47:00;;;;;;;12.48;5.95;;;-1.60;99.90;;;;;;2095541;68;20270;-76
2022/03/05 03:49:44;;;;;;;10.93;6.47;;;-1.70;99.90;;;;;;2090291;68;20183;-75
2022/03/05 03:52:25;;;;;;;9.52;5.88;;;-1.70;99.90;;;;;;2075766;68;20264;-76
2022/03/05 03:55:12;;;;;;;7.95;5.47;;;-1.70;99.90;;;;;;2076434;68;20184;-76
2022/03/05 03:57:53;;;;;;;11.93;6.88;;;-1.70;99.90;;;;;;2087473;68;20206;-76
2022/03/05 04:00:35;;;;;;;10.35;6.28;;;-1.70;99.90;;;;;;2089213;68;20359;-76
2022/03/05 04:03:17;;;;;;;9.05;5.78;;;-1.70;99.90;;;;;;2089646;68;20800;-76
2022/03/05 04:05:59;;;;;;;11.18;6.45;;;-1.70;99.90;;;;;;2094585;68;20722;-76
2022/03/05 04:08:42;;;;;;;9.77;7.07;;;-1.80;99.90;;;;;;2096215;68;20745;-75
2022/03/05 04:11:27;;;;;;;10.38;6.57;;;-1.80;99.90;;;;;;2098017;67;20187;-75
2022/03/05 04:14:08;;;;;;;11.27;6.57;;;-1.80;99.90;;;;;;2096175;68;20739;-76
2022/03/05 04:16:51;;;;;;;9.25;6.50;;;-1.80;99.90;;;;;;2117598;67;20352;-75
2022/03/05 04:19:32;;;;;;;10.93;5.75;;;-1.80;99.90;;;;;;2124738;67;20804;-77
2022/03/05 04:22:14;;;;;;;10.10;5.40;;;-1.70;99.90;;;;;;2130200;67;21031;-76
2022/03/05 04:24:56;;;;;;;12.07;6.63;;;-1.60;99.90;;;;;;2122986;67;20258;-75
2022/03/05 04:27:37;;;;;;;11.45;6.63;;;-1.80;99.90;;;;;;2121069;67;20331;-75
2022/03/05 04:30:22;;;;;;;10.63;6.72;;;-1.60;99.90;;;;;;2113868;67;20220;-75
2022/03/05 04:33:04;;;;;;;11.20;6.57;;;-1.80;99.90;;;;;;2103990;67;20386;-75
2022/03/05 04:35:45;;;;;;;10.55;6.38;;;-1.80;99.90;;;;;;2104243;67;20203;-76
2022/03/05 04:38:28;;;;;;;9.50;5.38;;;-1.90;99.90;;;;;;2104544;67;20327;-76
2022/03/05 04:41:10;;;;;;;9.35;5.82;;;-1.90;99.90;;;;;;2103781;68;20237;-75
2022/03/05 04:43:51;;;;;;;11.48;6.30;;;-2.00;99.90;;;;;;2110385;67;20394;-77
2022/03/05 04:46:34;;;;;;;9.57;5.75;;;-1.90;99.90;;;;;;2096563;68;20175;-76
2022/03/05 04:49:20;;;;;;;8.80;5.13;;;-2.00;99.90;;;;;;2091876;68;20260;-76
2022/03/05 04:52:04;;;;;;;12.00;6.45;;;-1.40;99.90;;;;;;2090112;68;20806;-76
2022/03/05 04:54:49;;;;;;;10.73;6.50;;;-2.00;99.90;;;;;;2082979;68;20719;-75
2022/03/05 04:57:33;;;;;;;8.85;5.50;;;-1.80;99.90;;;;;;2089582;68;20163;-76
2022/03/05 05:00:16;;;;;;;12.55;6.15;;;-2.00;99.90;;;;;;2084601;68;20403;-76
2022/03/05 05:02:59;;;;;;;7.72;4.85;;;-2.00;99.90;;;;;;2084419;68;20258;-75
2022/03/05 05:05:43;;;;;;;10.68;5.57;;;-2.00;99.90;;;;;;2084028;68;20267;-74
2022/03/05 05:08:25;;;;;;;10.23;5.38;;;-2.00;99.90;;;;;;2103394;67;20272;-76
2022/03/05 05:11:07;;;;;;;10.60;5.72;;;-2.00;99.90;;;;;;2100929;68;20264;-76
2022/03/05 05:13:48;;;;;;;13.13;5.95;;;-2.00;99.90;;;;;;2091031;68;20339;-76
2022/03/05 05:16:29;;;;;;;10.27;4.78;;;-1.80;99.90;;;;;;2077282;68;20193;-76
2022/03/05 05:19:29;;;;;;;9.73;6.57;;;-1.90;99.90;;;;;;2070056;69;20186;-76
2022/03/05 05:22:30;;;;;;;10.25;6.30;;;-2.00;99.90;;;;;;2068179;69;20197;-75
2022/03/05 05:25:14;;;;;;;8.88;5.45;;;-2.00;99.90;;;;;;2061984;69;20282;-75
2022/03/05 05:27:57;;;;;;;9.25;5.78;;;-2.00;99.90;;;;;;2048116;69;20348;-75
2022/03/05 05:30:39;;;;;;;9.65;5.97;;;-1.90;99.90;;;;;;2049107;69;20251;-76
2022/03/05 05:33:25;;;;;;;10.85;5.15;;;-2.10;99.90;;;;;;2055402;69;20349;-75
2022/03/05 05:36:07;;;;;;;10.55;6.38;;;-2.10;99.90;;;;;;2049558;69;20206;-75
2022/03/05 05:38:49;;;;;;;12.27;5.53;;;-2.10;99.90;;;;;;2049042;69;20321;-75
2022/03/05 05:41:31;;;;;;;8.18;5.80;;;-1.60;99.90;;;;;;2053835;69;20293;-77
2022/03/05 05:44:13;;;;;;;10.90;5.82;;;-2.10;99.90;;;;;;2055294;69;20221;-77
2022/03/05 05:47:01;;;;;;;10.18;5.75;;;-2.10;99.90;;;;;;2054216;69;20190;-77
2022/03/05 05:49:46;;;;;;;9.57;5.43;;;-2.10;99.90;;;;;;2057572;69;20348;-76
2022/03/05 05:52:28;;;;;;;8.98;5.95;;;-2.10;99.90;;;;;;2070221;68;20185;-76
2022/03/05 05:55:11;;;;;;;9.90;5.40;;;-2.10;99.90;;;;;;2069903;69;20209;-76
2022/03/05 05:57:53;;;;;;;9.93;5.60;;;-2.10;99.90;;;;;;2062832;69;20378;-76
2022/03/05 06:00:36;;;;;;;8.85;5.43;;;-2.10;99.90;;;;;;2071505;69;20323;-77
2022/03/05 06:03:21;;;;;;;10.80;6.13;;;-2.10;99.90;;;;;;2071965;69;20297;-76
2022/03/05 06:06:02;;;;;;;11.15;6.32;;;-2.10;99.90;;;;;;2077815;68;20308;-76
2022/03/05 06:08:44;;;;;;;9.15;5.35;;;-2.20;99.90;;;;;;2085363;68;20619;-76
2022/03/05 06:11:25;;;;;;;10.32;5.85;;;-2.10;99.90;;;;;;2097018;68;20285;-75
2022/03/05 06:14:07;;;;;;;12.18;6.80;;;-2.00;99.90;;;;;;2099604;68;20264;-75
2022/03/05 06:16:49;;;;;;;10.25;6.35;;;-2.20;99.90;;;;;;2115206;67;20174;-74
2022/03/05 06:19:31;;;;;;;9.02;5.88;;;-2.20;99.90;;;;;;2118961;67;20312;-74
2022/03/05 06:22:13;;;;;;;10.35;6.57;;;-2.20;99.90;;;;;;2124791;67;20273;-76
2022/03/05 06:24:55;;;;;;;11.95;7.65;;;-2.10;99.90;;;;;;2124043;67;20365;-75
2022/03/05 06:27:38;;;;;;;10.38;6.00;;;-2.10;99.90;;;;;;2119364;67;20228;-75
2022/03/05 06:30:19;;;;;;;9.52;5.88;;;-2.10;99.90;;;;;;2109073;67;20190;-74
2022/03/05 06:33:01;;;;;;;12.10;6.63;;;-2.10;99.90;;;;;;2096145;68;20328;-74
2022/03/05 06:35:44;;;;;;;10.68;6.25;;;-2.10;99.90;;;;;;2110402;67;20884;-74
2022/03/05 06:38:26;;;;;;;11.18;6.72;;;-2.10;99.90;;;;;;2115994;67;20177;-74
2022/03/05 06:41:08;;;;;;;10.18;6.35;;;-1.80;99.90;;;;;;2112662;67;20462;-75
2022/03/05 06:43:50;;;;;;;8.70;5.82;;;-1.90;99.90;;;;;;2110893;67;20186;-75
2022/03/05 06:46:32;;;;;;;11.90;6.65;;;-2.00;99.90;;;;;;2102983;67;20347;-75
2022/03/05 06:49:13;;;;;;;8.77;5.72;;;-1.90;99.90;;;;;;2097144;68;20199;-76
2022/03/05 06:51:58;;;;;;;10.82;6.28;;;-1.90;99.90;;;;;;2088249;68;20450;-75
2022/03/05 06:54:43;;;;;;;11.13;6.43;;;-1.80;99.90;;;;;;2075725;68;20200;-75
2022/03/05 06:57:31;;;;;;;13.95;6.72;;;-1.80;99.90;;;;;;2075726;68;20393;-74
2022/03/05 07:00:15;;;;;;;11.85;5.80;;;-1.70;99.90;;;;;;2089284;68;20737;-75
2022/03/05 07:02:56;;;;;;;11.90;5.88;;;-1.70;99.90;;;;;;2096221;68;20182;-74
2022/03/05 07:05:42;;;;;;;9.48;5.97;;;-1.70;99.90;;;;;;2097872;68;20283;-74
2022/03/05 07:08:24;;;;;;;10.82;6.80;;;-1.60;99.90;;;;;;2103629;67;20323;-74
2022/03/05 07:11:06;;;;;;;12.93;7.32;;;-1.60;99.90;;;;;;2109712;67;20334;-74
2022/03/05 07:13:49;;;;;;;9.48;7.15;;;-1.50;99.90;;;;;;2116774;67;20370;-74
2022/03/05 07:16:33;;;;;;;;;;;-1.40;99.90;;;;;;2123786;67;20352;-76
2022/03/05 07:19:15;;;;;;;14.13;7.13;;;-1.40;99.90;;;;;;2109815;67;20587;-74
2022/03/05 07:21:58;;;;;;;12.98;6.72;;;-1.30;99.90;;;;;;2102046;68;20279;-74
2022/03/05 07:24:42;;;;;;;;;;;-1.20;99.90;;;;;;2102671;67;20194;-73
2022/03/05 07:27:24;;;;;;;10.68;6.75;;;-1.20;99.90;;;;;;2113405;67;20129;-75
2022/03/05 07:30:08;;;;;;;8.23;6.28;;;-0.30;99.90;;;;;;2112438;67;20360;-73
2022/03/05 07:32:51;;;;;;;9.48;6.95;;;-1.00;99.90;;;;;;2109135;67;20240;-79
2022/03/05 07:35:32;;;;;;;11.05;7.22;;;-1.00;99.90;;;;;;2094075;67;20425;-78
2022/03/05 07:38:14;;;;;;;9.98;6.88;;;-0.90;99.90;;;;;;2082001;68;20357;-77
2022/03/05 07:40:59;;;;;;;10.80;7.45;;;-0.80;99.90;;;;;;2082257;68;20280;-76
2022/03/05 07:43:40;;;;;;;10.50;6.40;;;-0.80;99.90;;;;;;2069576;69;20239;-75
2022/03/05 07:46:23;;;;;;;11.85;7.55;;;-0.70;99.90;;;;;;2077599;68;20251;-73
2022/03/05 07:49:07;;;;;;;10.02;7.03;;;-0.70;99.90;;;;;;2097096;68;20233;-73
2022/03/05 07:51:50;;;;;;;11.18;6.60;;;-0.60;99.90;;;;;;2105202;67;20224;-74
2022/03/05 07:54:34;;;;;;;;;;;-0.60;99.90;;;;;;2103660;67;20215;-74
2022/03/05 07:57:17;;;;;;;11.65;7.00;;;-0.50;99.90;;;;;;2088864;68;20087;-73
2022/03/05 08:00:02;;;;;;;;;;;-0.40;99.90;;;;;;2110404;67;20205;-74
2022/03/05 08:02:44;;;;;;;11.40;7.25;;;0.10;99.90;;;;;;2110227;67;20752;-78
2022/03/05 08:05:26;;;;;;;16.15;7.65;;;-0.30;99.90;;;;;;2102203;67;20190;-74
2022/03/05 08:08:08;;;;;;;11.68;6.97;;;-0.20;99.90;;;;;;2102480;68;20481;-74
2022/03/05 08:10:49;;;;;;;12.20;6.60;;;-0.10;99.90;;;;;;2081163;68;20281;-82
2022/03/05 08:13:32;;;;;;;11.32;6.78;;;0.00;99.90;;;;;;2095837;68;20294;-75
2022/03/05 08:16:15;;;;;;;16.52;7.60;;;0.00;99.90;;;;;;2102362;68;20480;-77
2022/03/05 08:18:59;;;;;;;;;;;0.10;99.90;;;;;;2103350;67;20698;-77
2022/03/05 08:21:44;;;;;;;12.20;7.50;;;0.20;99.90;;;;;;2096199;68;20062;-76
2022/03/05 08:24:26;;;;;;;11.00;7.30;;;0.30;99.90;;;;;;2092046;68;20191;-75
2022/03/05 08:27:07;;;;;;;12.77;7.47;;;0.30;99.90;;;;;;2077146;68;20401;-75
2022/03/05 08:29:49;;;;;;;10.70;6.95;;;0.40;99.90;;;;;;2077431;68;20762;-75
2022/03/05 08:32:31;;;;;;;11.30;8.07;;;0.50;99.90;;;;;;2077308;68;20321;-75
2022/03/05 08:35:14;;;;;;;10.88;7.45;;;0.50;99.90;;;;;;2083104;68;21300;-76
2022/03/05 08:37:56;;;;;;;13.70;8.13;;;0.60;99.90;;;;;;2097961;68;20186;-77
2022/03/05 08:40:38;;;;;;;12.65;7.65;;;0.70;99.90;;;;;;2104394;67;20756;-76
2022/03/05 08:43:20;;;;;;;10.05;7.45;;;0.80;99.90;;;;;;2097141;68;20206;-77
2022/03/05 08:46:04;;;;;;;11.30;7.03;;;0.90;99.90;;;;;;2099121;68;20851;-76
2022/03/05 08:48:46;;;;;;;12.18;7.30;;;1.00;99.90;;;;;;2098383;68;20706;-76
2022/03/05 08:51:29;;;;;;;11.02;6.80;;;1.00;99.90;;;;;;2105555;67;20234;-76
2022/03/05 08:54:15;;;;;;;12.80;6.90;;;1.10;99.90;;;;;;2109705;67;20353;-76
2022/03/05 08:57:03;;;;;;;11.70;8.38;;;1.10;99.90;;;;;;2110051;67;20761;-77
2022/03/05 08:59:49;;;;;;;13.52;7.32;;;1.20;99.90;;;;;;2116251;67;20228;-76
2022/03/05 09:02:32;;;;;;;9.07;6.60;;;1.30;99.90;;;;;;2110381;67;20470;-80
2022/03/05 09:05:15;;;;;;;12.52;7.05;;;1.40;99.90;;;;;;2101812;67;20648;-77
2022/03/05 09:07:59;;;;;;;11.48;7.70;;;1.50;99.90;;;;;;2096049;68;20214;-77
2022/03/05 09:10:41;;;;;;;12.07;7.68;;;1.50;99.90;;;;;;2091587;68;20171;-77
2022/03/05 09:13:23;;;;;;;17.20;7.82;;;2.30;99.90;;;;;;2091106;68;20809;-77
2022/03/05 09:16:06;;;;;;;12.85;7.90;;;1.70;99.90;;;;;;2083400;68;20180;-78
2022/03/05 09:18:48;;;;;;;17.95;8.13;;;1.80;99.90;;;;;;2090255;68;20231;-76
2022/03/05 09:21:29;;;;;;;11.38;7.35;;;1.90;99.90;;;;;;2090773;68;20256;-77
2022/03/05 09:24:12;;;;;;;12.77;8.18;;;2.00;99.90;;;;;;2089456;68;20797;-77
2022/03/05 09:26:55;;;;;;;12.73;7.95;;;2.10;99.90;;;;;;2088915;68;20331;-77
2022/03/05 09:29:39;;;;;;;13.82;7.25;;;2.10;99.90;;;;;;2089333;68;20242;-78
2022/03/05 09:32:22;;;;;;;14.02;7.97;;;2.20;99.90;;;;;;2096307;68;20733;-77
2022/03/05 09:35:10;;;;;;;13.75;8.60;;;2.30;99.90;;;;;;2092620;68;20331;-77
2022/03/05 09:37:52;;;;;;;15.02;9.20;;;2.40;99.90;;;;;;2073707;68;20287;-76
2022/03/05 09:40:34;;;;;;;14.45;8.10;;;2.50;99.90;;;;;;2089412;68;20176;-77
2022/03/05 09:43:18;;;;;;;13.60;7.60;;;2.50;99.90;;;;;;2108184;67;20293;-76
2022/03/05 09:46:03;;;;;;;13.05;7.15;;;2.90;99.90;;;;;;2111331;67;20546;-76
2022/03/05 09:48:45;;;;;;;13.63;8.02;;;2.60;99.90;;;;;;2125492;67;20176;-75
2022/03/05 09:51:27;;;;;;;17.05;7.93;;;2.90;99.90;;;;;;2124391;67;20337;-77
2022/03/05 09:54:11;;;;;;;14.35;9.10;;;2.70;99.90;;;;;;2109611;67;20174;-78
2022/03/05 09:57:14;;;;;;;12.82;8.23;;;2.80;99.90;;;;;;2104400;67;20860;-78
2022/03/05 09:59:59;;;;;;;11.77;7.70;;;2.90;99.90;;;;;;2098831;67;20277;-77
2022/03/05 10:02:47;;;;;;;11.88;7.97;;;2.90;99.90;;;;;;2117539;67;20216;-77
2022/03/05 10:05:32;;;;;;;13.05;8.10;;;3.00;99.90;;;;;;2107054;67;20245;-77
2022/03/05 10:08:15;;;;;;;15.98;8.52;;;3.10;99.90;;;;;;2096716;68;20182;-77
2022/03/05 10:11:01;;;;;;;13.65;8.43;;;3.20;99.90;;;;;;2089563;68;20250;-77
2022/03/05 10:13:44;;;;;;;14.02;8.07;;;3.20;99.90;;;;;;2079310;68;20338;-76
2022/03/05 10:16:47;;;;;;;12.70;7.72;;;3.30;99.90;;;;;;2081078;68;20247;-77
2022/03/05 10:19:30;;;;;;;14.18;8.80;;;3.40;99.90;;;;;;2089450;68;20616;-77
2022/03/05 10:22:15;;;;;;;11.80;8.05;;;3.60;99.90;;;;;;2087712;68;20860;-77
2022/03/05 10:25:00;;;;;;;13.20;8.40;;;3.70;99.90;;;;;;2087144;68;20332;-76
2022/03/05 10:27:43;;;;;;;11.57;7.97;;;3.80;99.90;;;;;;2085288;68;20331;-77
2022/03/05 10:30:39;;;;;;;13.88;8.50;;;3.80;99.90;;;;;;2078975;68;20575;-77
2022/03/05 10:33:28;;;;;;;13.57;9.00;;;4.00;99.90;;;;;;2083618;68;20239;-77
2022/03/05 10:36:30;;;;;;;15.13;9.20;;;4.00;99.90;;;;;;2087866;68;20196;-77
2022/03/05 10:39:12;;;;;;;11.63;7.40;;;4.20;99.90;;;;;;2082240;68;20324;-77
2022/03/05 10:41:57;;;;;;;16.17;9.23;;;4.30;99.90;;;;;;2089153;68;20357;-77
2022/03/05 10:45:03;;;;;;;12.90;7.85;;;4.90;99.90;;;;;;2098262;67;20371;-77
2022/03/05 10:47:47;;;;;;;13.63;9.10;;;4.70;99.90;;;;;;2108151;67;20345;-76
2022/03/05 10:50:33;;;;;;;15.23;8.52;;;4.90;99.90;;;;;;2112174;67;20300;-78
2022/03/05 10:53:14;;;;;;;14.40;8.95;;;5.20;99.90;;;;;;2134277;67;20697;-77
2022/03/05 10:55:57;;;;;;;17.42;9.63;;;5.50;99.90;;;;;;2138762;66;20250;-77
2022/03/05 10:58:38;;;;;;;16.45;9.38;;;5.70;99.90;;;;;;2131724;67;20309;-78
2022/03/05 11:01:20;;;;;;;14.88;10.18;;;6.00;99.90;;;;;;2134427;67;20227;-78
2022/03/05 11:04:02;;;;;;;13.65;8.68;;;6.30;99.90;;;;;;2132770;67;20374;-79
2022/03/05 11:06:44;;;;;;;16.00;9.73;;;6.70;99.90;;;;;;2130261;67;20599;-77
2022/03/05 11:09:28;;;;;;;12.48;9.05;;;7.10;99.90;;;;;;2145283;66;20253;-77
2022/03/05 11:12:16;;;;;;;12.98;8.90;;;7.40;99.90;;;;;;2132510;67;20162;-76
2022/03/05 11:14:57;;;;;;;12.70;8.65;;;7.80;99.90;;;;;;2125715;67;20427;-76
2022/03/05 11:17:39;;;;;;;14.77;8.80;;;8.20;99.90;;;;;;2122558;67;20232;-77
2022/03/05 11:20:21;;;;;;;13.93;8.73;;;8.70;99.90;;;;;;2117626;67;20648;-76
2022/03/05 11:23:06;;;;;;;13.30;9.88;;;9.00;99.90;;;;;;2111967;67;20322;-78
2022/03/05 11:25:49;;;;;;;13.07;8.85;;;9.50;99.90;;;;;;2114863;67;20231;-75
2022/03/05 11:28:54;;;;;;;13.63;9.07;;;9.90;99.90;;;;;;2106659;67;20241;-77
2022/03/05 11:31:38;;;;;;;15.70;9.27;;;10.30;91.40;;;;;;2099229;68;20603;-76
2022/03/05 11:34:23;;;;;;;20.65;12.10;;;10.50;92.00;;;;;;2102097;68;20289;-78
2022/03/05 11:37:22;;;;;;;14.20;10.45;;;10.90;90.00;;;;;;2083334;68;20448;-72
2022/03/05 11:40:06;;;;;;;20.85;12.85;;;11.20;83.50;;;;;;2080115;68;20267;-79
2022/03/05 11:44:45;;;;;;;21.33;12.88;;;11.60;66.80;;;;;;2265374;62;20598;-72
2022/03/05 11:47:37;;;;;;;15.73;12.25;;;12.00;65.90;;;;;;2255298;63;20183;-79
2022/03/05 11:50:21;;;;;;;14.60;11.50;;;12.50;58.70;;;;;;2245762;63;20153;-80
2022/03/05 11:53:07;;;;;;;15.73;10.52;;;12.20;58.90;;;;;;2226804;64;20171;-79
2022/03/05 11:55:49;;;;;;;13.40;10.48;;;12.10;57.30;;;;;;2219561;64;20192;-68
2022/03/05 11:58:34;;;;;;;16.38;11.27;;;11.80;60.10;;;;;;2213992;64;20228;-70
2022/03/05 12:01:34;;;;;;;16.35;11.50;;;11.70;60.40;;;;;;2204882;64;20176;-68
2022/03/05 12:04:22;;;;;;;15.73;11.23;;;11.80;59.80;;;;;;2207699;64;20210;-68
2022/03/05 12:07:13;;;;;;;17.88;10.15;;;11.80;61.80;;;;;;2200055;65;20584;-68
2022/03/05 12:10:02;;;;;;;14.63;10.82;;;12.10;62.50;;;;;;2183083;65;20343;-67
2022/03/05 12:13:01;;;;;;;12.02;9.75;;;12.60;62.40;;;;;;2183746;65;20811;-68
2022/03/05 12:15:47;;;;;;;16.52;10.98;;;13.10;61.10;;;;;;2176030;65;20294;-67
2022/03/05 12:18:32;;;;;;;13.32;10.05;;;13.60;61.30;;;;;;2165363;65;20227;-69
2022/03/05 12:21:28;;;;;;;13.35;9.73;;;14.30;61.40;;;;;;2147861;66;20275;-68
2022/03/05 12:24:10;;;;;;;;;;;15.00;59.50;;;;;;2148127;66;20178;-67
2022/03/05 12:26:56;;;;;;;12.95;9.43;;;15.40;60.50;;;;;;2158476;66;20639;-68
2022/03/05 12:29:49;;;;;;;12.20;9.20;;;15.80;57.70;;;;;;2151092;66;20638;-67
2022/03/05 12:32:31;;;;;;;14.32;10.68;;;16.70;54.10;;;;;;2150250;66;20406;-67
2022/03/05 12:35:17;;;;;;;11.23;8.98;;;16.80;52.80;;;;;;2141897;66;20875;-68
2022/03/05 12:37:59;;;;;;;13.02;10.65;;;17.00;52.60;;;;;;2151276;66;20921;-68
2022/03/05 12:40:44;;;;;;;11.95;9.98;;;17.20;50.70;;;;;;2136519;67;20316;-68
2022/03/05 12:43:26;;;;;;;11.90;9.93;;;17.30;50.30;;;;;;2136792;66;20183;-67
2022/03/05 12:46:08;;;;;;;14.27;11.38;;;17.50;50.10;;;;;;2133829;66;20577;-68
2022/03/05 12:48:49;;;;;;;13.93;12.30;;;17.80;49.50;;;;;;2136869;66;20179;-69
2022/03/05 12:51:34;;;;;;;15.32;11.55;;;18.10;48.30;;;;;;2135067;67;20727;-68
2022/03/05 12:54:19;;;;;;;15.90;11.35;;;18.50;47.80;;;;;;2128239;67;20365;-69
2022/03/05 12:57:00;;;;;;;17.23;13.75;;;19.00;47.10;;;;;;2112483;67;20222;-68
2022/03/05 12:59:42;;;;;;;18.23;14.63;;;19.20;45.30;;;;;;2133964;67;20172;-68
2022/03/05 13:02:26;;;;;;;17.73;14.43;;;19.30;45.10;;;;;;2133355;67;20204;-69
2022/03/05 13:05:16;;;;;;;15.38;13.02;;;19.70;43.70;;;;;;2147729;66;20364;-69
2022/03/05 13:07:57;;;;;;;13.38;11.98;;;19.80;43.50;;;;;;2148098;66;20199;-68
2022/03/05 13:10:39;;;;;;;15.07;12.57;;;20.10;43.30;;;;;;2145621;66;20820;-68
2022/03/05 13:13:49;;;;;;;14.02;11.43;;;20.30;43.20;;;;;;2153441;66;20290;-68
2022/03/05 13:16:39;;;;;;;12.30;10.90;;;20.50;42.40;;;;;;2158624;66;20185;-69
2022/03/05 13:19:21;;;;;;;14.27;11.43;;;20.90;42.10;;;;;;2158741;66;20334;-68
2022/03/05 13:22:05;;;;;;;11.52;10.30;;;21.20;42.00;;;;;;2157456;66;20196;-67
2022/03/05 13:24:52;;;;;;;10.93;9.60;;;21.10;40.70;;;;;;2164658;65;20804;-68
2022/03/05 13:27:35;;;;;;;12.65;10.23;;;20.50;41.00;;;;;;2158219;66;20269;-68
2022/03/05 13:30:19;;;;;;;10.57;8.93;;;20.60;42.30;;;;;;2144747;66;20331;-68
2022/03/05 13:33:01;;;;;;;9.90;8.88;;;20.90;41.60;;;;;;2147783;66;20349;-69
2022/03/05 13:36:12;;;;;;;11.35;8.77;;;21.10;41.60;;;;;;2148065;66;20639;-70
2022/03/05 13:39:06;;;;;;;11.40;9.95;;;21.30;41.00;;;;;;2166850;66;20260;-67
2022/03/05 13:41:52;;;;;;;12.25;10.65;;;20.80;40.80;;;;;;2163268;66;20886;-67
2022/03/05 13:44:34;;;;;;;;;;;20.90;40.90;;;;;;2162044;66;20202;-68
2022/03/05 13:47:18;;;;;;;11.07;9.52;;;21.30;42.00;;;;;;2170860;65;20645;-67
2022/03/05 13:50:03;;;;;;;12.43;10.07;;;21.50;40.50;;;;;;2165949;65;20274;-68
2022/03/05 13:53:01;;;;;;;11.75;10.07;;;20.90;39.80;;;;;;2154663;66;20311;-68
2022/03/05 13:55:42;;;;;;;10.73;9.63;;;20.70;40.80;;;;;;2163700;65;20264;-67
2022/03/05 13:58:24;;;;;;;12.80;10.45;;;21.00;39.50;;;;;;2167070;65;20238;-67
2022/03/05 14:01:38;;;;;;;10.30;8.85;;;21.20;39.50;;;;;;2166569;66;20365;-66
2022/03/05 14:04:24;;;;;;;12.05;10.13;;;21.40;39.60;;;;;;2156581;66;20173;-67
2022/03/05 14:07:09;;;;;;;13.35;9.90;;;21.00;39.10;;;;;;2155519;66;20656;-67
2022/03/05 14:09:51;;;;;;;13.50;9.85;;;20.70;39.40;;;;;;2146269;66;20267;-67
2022/03/05 14:12:35;;;;;;;14.00;10.50;;;20.70;39.60;;;;;;2139642;66;20248;-68